MV Scf Alpine — A8XQ2 — position and weather

sailwx.info

Track history (hours):
 
Tides and Currents Weather Stations Pressure Air Temp Water Temp Dewpoint Dewpoint Depression Visibility Wind Speed Wind Dir Waves Ship Positions

MV Scf Alpine

Last reported at 2015-Jan-10 19:34 UTC. Time now 2015-Feb-01 16:42 UTC.
Position N 22°40' E 119°53'.
Warning: this ship's position is 21 days out of date.

Length 229 m; draft 12.5 m.

Type: Tanker. MMSI: 636014957.

Date/timePositionNaut miles runAvg speedWind from/ knotsBaromVisibWave heightAir tempDewpointWater temp
2015-Jan-10 19:34N 22°40' E 119°53'1111.2
2015-Jan-10 18:34N 22°29' E 119°51'1211.6
2015-Jan-10 17:33N 22°19' E 119°45'  
2015-Jan-04 19:29N 01°15' E 104°09'1111.7
2015-Jan-04 18:33N 01°14' E 103°58'4 3.9
2015-Jan-04 17:33N 01°16' E 103°55'0 0.2
2015-Jan-04 15:32N 01°16' E 103°54'0 0.0
2015-Jan-04 14:11N 01°16' E 103°54'0 0.0
2015-Jan-04 13:26N 01°16' E 103°54'0 0.0
2015-Jan-04 11:14N 01°16' E 103°54'0 0.1
2015-Jan-04 10:32N 01°16' E 103°54'0 0.1
2015-Jan-04 09:26N 01°16' E 103°54'0 0.0
2015-Jan-04 08:32N 01°16' E 103°54'0 0.1
2015-Jan-04 07:32N 01°16' E 103°54'0 0.0
2015-Jan-04 05:32N 01°16' E 103°54'0 0.0
2015-Jan-04 04:29N 01°16' E 103°54'0 0.1
2015-Jan-04 03:32N 01°16' E 103°54'1 0.3
2015-Jan-04 01:33N 01°15' E 103°54'2 2.1
2015-Jan-04 00:33N 01°14' E 103°56'8 7.0
2015-Jan-03 23:24N 01°10' E 103°49'90 9.0
2015-Jan-03 13:24N 01°48' E 102°27'  
Track history (hours):
 
Tides and Currents Weather Stations Pressure Air Temp Water Temp Dewpoint Dewpoint Depression Visibility Wind Speed Wind Dir Waves Ship Positions

MV Scf Alpine

Last reported at 2015-Jan-10 19:34 UTC. Time now 2015-Feb-01 16:42 UTC.
Position N 22°40' E 119°53'.
Warning: this ship's position is 21 days out of date.

Length 229 m; draft 12.5 m.

Type: Tanker. MMSI: 636014957.

Date/timePositionNaut miles runAvg speedWind from/ knotsBaromVisibWave heightAir tempDewpointWater temp
2015-Jan-10 19:34N 22°40' E 119°53'1111.2
2015-Jan-10 18:34N 22°29' E 119°51'1211.6
2015-Jan-10 17:33N 22°19' E 119°45'  
2015-Jan-04 19:29N 01°15' E 104°09'1111.7
2015-Jan-04 18:33N 01°14' E 103°58'4 3.9
2015-Jan-04 17:33N 01°16' E 103°55'0 0.2
2015-Jan-04 15:32N 01°16' E 103°54'0 0.0
2015-Jan-04 14:11N 01°16' E 103°54'0 0.0
2015-Jan-04 13:26N 01°16' E 103°54'0 0.0
2015-Jan-04 11:14N 01°16' E 103°54'0 0.1
2015-Jan-04 10:32N 01°16' E 103°54'0 0.1
2015-Jan-04 09:26N 01°16' E 103°54'0 0.0
2015-Jan-04 08:32N 01°16' E 103°54'0 0.1
2015-Jan-04 07:32N 01°16' E 103°54'0 0.0
2015-Jan-04 05:32N 01°16' E 103°54'0 0.0
2015-Jan-04 04:29N 01°16' E 103°54'0 0.1
2015-Jan-04 03:32N 01°16' E 103°54'1 0.3
2015-Jan-04 01:33N 01°15' E 103°54'2 2.1
2015-Jan-04 00:33N 01°14' E 103°56'8 7.0
2015-Jan-03 23:24N 01°10' E 103°49'90 9.0
2015-Jan-03 13:24N 01°48' E 102°27'  

Dump ship's entire track history